KAVX/AVX METAR and TAF weather

Enter ICAO airport designator
Station Type Date Time Source
KAVX METAR 2018/01/23 00:51 UTC NOAA

KAVX 230051Z AUTO 28004KT 10SM 14/02 A3019 RMK AO2 SLP219 T01440017


Station Type Date Time Source
KAVX Decoded METAR 2018/01/23 00:51 UTC NOAA

AVALON CATALINA AIRPORT, CA, United States (KAVX) 33-24N 118-25W 482M
Jan 22, 2018 - 07:51 PM EST / 2018.01.23 0051 UTC
Wind: from the W (280 degrees) at 5 MPH (4 KT):0
Visibility: 10 mile(s):0
Temperature: 57.9 F (14.4 C)
Dew Point: 35.1 F (1.7 C)
Relative Humidity: 42%
Pressure (altimeter): 30.19 in. Hg (1022 hPa)
ob: KAVX 230051Z AUTO 28004KT 10SM 14/02 A3019 RMK AO2 SLP219 T01440017
cycle: 1

Station Type Date Time Source
KAVX TAF UTC NOAA

Error!


Example: see airport list